Time;durP1;ratioP1;P1;durP2;ratioP2;P2;SDS_P1;SDS_P2;PMS_P1;PMS_P2;Temp;Humidity;BMP_temperature;BMP_pressure;BME280_temperature;BME280_humidity;BME280_pressure;Samples;Min_cycle;Max_cycle;Signal;HPM_P1;HPM_P2
2024/03/22 00:00:28;;;;;;;5.30;4.90;;;;;;;;;;6160008;29;20470;-59
2024/03/22 00:03:30;;;;;;;5.90;5.40;;;;;;;;;;6159938;28;20297;-59
2024/03/22 00:06:32;;;;;;;5.40;5.00;;;;;;;;;;6160354;29;20297;-60
2024/03/22 00:09:35;;;;;;;5.97;5.50;;;;;;;;;;6160060;29;20301;-61
2024/03/22 00:12:38;;;;;;;5.97;5.00;;;;;;;;;;6137047;29;20380;-60
2024/03/22 00:15:42;;;;;;;4.83;4.47;;;;;;;;;;6136027;29;20306;-61
2024/03/22 00:18:45;;;;;;;5.37;4.97;;;;;;;;;;6136225;29;20590;-61
2024/03/22 00:21:46;;;;;;;5.77;4.97;;;;;;;;;;6136321;29;20294;-60
2024/03/22 00:24:49;;;;;;;5.37;4.93;;;;;;;;;;6135882;29;20318;-60
2024/03/22 00:27:51;;;;;;;7.63;5.60;;;;;;;;;;6135834;29;20294;-60
2024/03/22 00:30:55;;;;;;;5.33;4.93;;;;;;;;;;6136027;29;20599;-60
2024/03/22 00:33:58;;;;;;;6.20;4.97;;;;;;;;;;6135705;29;20611;-60
2024/03/22 00:37:00;;;;;;;7.47;4.97;;;;;;;;;;6135910;29;20314;-60
2024/03/22 00:40:04;;;;;;;4.70;4.40;;;;;;;;;;6137121;29;20294;-60
2024/03/22 00:43:06;;;;;;;5.17;4.70;;;;;;;;;;6160052;28;20306;-61
2024/03/22 00:46:10;;;;;;;5.53;4.60;;;;;;;;;;6160132;29;20302;-60
2024/03/22 00:49:13;;;;;;;5.03;4.63;;;;;;;;;;6159458;29;20297;-59
2024/03/22 00:52:15;;;;;;;4.60;4.33;;;;;;;;;;6160225;29;20298;-60
2024/03/22 00:55:17;;;;;;;4.97;4.57;;;;;;;;;;6159587;29;20290;-60
2024/03/22 00:58:20;;;;;;;6.27;4.50;;;;;;;;;;6162685;28;20289;-60
2024/03/22 01:01:25;;;;;;;6.05;5.65;;;;;;;;;;6146745;29;20497;-60
2024/03/22 01:04:26;;;;;;;5.00;4.55;;;;;;;;;;6163478;29;20290;-59
2024/03/22 01:07:29;;;;;;;4.77;4.37;;;;;;;;;;6164156;29;20609;-60
2024/03/22 01:10:32;;;;;;;6.47;5.88;;;;;;;;;;6153750;29;20486;-60
2024/03/22 01:13:35;;;;;;;5.75;5.18;;;;;;;;;;6139978;29;20299;-61
2024/03/22 01:16:39;;;;;;;5.33;4.67;;;;;;;;;;6140182;29;20299;-60
2024/03/22 01:19:42;;;;;;;5.10;4.70;;;;;;;;;;6139480;29;20302;-60
2024/03/22 01:22:44;;;;;;;4.77;4.43;;;;;;;;;;6140246;29;20299;-60
2024/03/22 01:25:47;;;;;;;4.93;4.53;;;;;;;;;;6138980;29;20350;-60
2024/03/22 01:28:48;;;;;;;5.83;4.70;;;;;;;;;;6139805;29;20299;-59
2024/03/22 01:31:52;;;;;;;10.07;4.67;;;;;;;;;;6140037;29;20318;-60
2024/03/22 01:34:54;;;;;;;9.50;5.23;;;;;;;;;;6138834;29;20318;-60
2024/03/22 01:37:57;;;;;;;5.20;4.20;;;;;;;;;;6139107;29;20302;-61
2024/03/22 01:40:59;;;;;;;4.00;3.70;;;;;;;;;;6148908;28;20306;-60
2024/03/22 01:44:02;;;;;;;7.33;4.07;;;;;;;;;;6162518;28;20295;-59
2024/03/22 01:47:05;;;;;;;6.30;3.90;;;;;;;;;;6163466;28;20454;-61
2024/03/22 01:50:09;;;;;;;5.63;3.97;;;;;;;;;;6163053;28;20313;-61
2024/03/22 01:53:11;;;;;;;4.83;4.00;;;;;;;;;;6163089;28;20310;-59
2024/03/22 01:56:14;;;;;;;4.30;3.90;;;;;;;;;;6160795;28;20297;-60
2024/03/22 01:59:16;;;;;;;4.50;3.33;;;;;;;;;;6163061;28;20290;-60
2024/03/22 02:02:20;;;;;;;3.57;3.37;;;;;;;;;;6147114;28;20396;-60
2024/03/22 02:05:24;;;;;;;3.47;3.27;;;;;;;;;;6162338;28;20289;-60
2024/03/22 02:08:26;;;;;;;3.73;3.37;;;;;;;;;;6162006;28;20290;-61
2024/03/22 02:11:29;;;;;;;3.10;3.00;;;;;;;;;;6146933;29;20287;-61
2024/03/22 02:14:32;;;;;;;3.50;3.20;;;;;;;;;;6138695;29;20314;-61
2024/03/22 02:17:35;;;;;;;4.03;3.80;;;;;;;;;;6138404;29;20582;-60
2024/03/22 02:20:38;;;;;;;3.30;3.00;;;;;;;;;;6138736;29;20598;-61
2024/03/22 02:23:41;;;;;;;3.87;3.60;;;;;;;;;;6138441;29;20298;-60
2024/03/22 02:26:44;;;;;;;3.43;3.23;;;;;;;;;;6138814;29;20291;-60
2024/03/22 02:29:46;;;;;;;3.67;3.47;;;;;;;;;;6138460;29;20294;-60
2024/03/22 02:32:49;;;;;;;3.40;3.00;;;;;;;;;;6138706;29;20302;-60
2024/03/22 02:35:51;;;;;;;3.33;3.13;;;;;;;;;;6138372;29;20303;-61
2024/03/22 02:38:55;;;;;;;3.50;3.30;;;;;;;;;;6138087;29;20309;-60
2024/03/22 02:41:57;;;;;;;3.10;2.87;;;;;;;;;;6155401;29;20589;-60
2024/03/22 02:44:59;;;;;;;3.40;3.10;;;;;;;;;;6161691;29;20309;-60
2024/03/22 02:48:01;;;;;;;3.40;3.20;;;;;;;;;;6162067;28;20289;-61
2024/03/22 02:51:05;;;;;;;3.03;2.93;;;;;;;;;;6162209;29;20299;-60
2024/03/22 02:54:08;;;;;;;3.03;2.93;;;;;;;;;;6161920;29;20317;-60
2024/03/22 02:57:11;;;;;;;3.20;3.00;;;;;;;;;;6162251;29;20480;-60
2024/03/22 03:00:14;;;;;;;3.83;3.57;;;;;;;;;;6161867;29;20282;-60
2024/03/22 03:03:17;;;;;;;4.20;3.23;;;;;;;;;;6161353;28;20296;-60
2024/03/22 03:06:19;;;;;;;3.23;3.13;;;;;;;;;;6162371;29;20292;-61
2024/03/22 03:09:24;;;;;;;3.30;3.10;;;;;;;;;;6161496;29;20291;-60
2024/03/22 03:12:26;;;;;;;3.50;3.20;;;;;;;;;;6139019;29;20287;-60
2024/03/22 03:15:28;;;;;;;3.37;3.17;;;;;;;;;;6137399;29;20304;-59
2024/03/22 03:18:31;;;;;;;3.00;2.90;;;;;;;;;;6137400;29;20567;-61
2024/03/22 03:21:34;;;;;;;3.43;3.17;;;;;;;;;;6137604;29;20298;-60
2024/03/22 03:24:37;;;;;;;3.30;3.00;;;;;;;;;;6136414;29;20310;-59
2024/03/22 03:27:40;;;;;;;3.00;2.90;;;;;;;;;;6137546;29;20376;-59
2024/03/22 03:30:42;;;;;;;2.97;2.77;;;;;;;;;;6136974;29;20302;-60
2024/03/22 03:33:45;;;;;;;3.07;2.90;;;;;;;;;;6136291;29;20308;-61
2024/03/22 03:36:46;;;;;;;3.03;2.93;;;;;;;;;;6137109;29;20441;-60
2024/03/22 03:39:51;;;;;;;3.00;2.80;;;;;;;;;;6136986;29;20590;-60
2024/03/22 03:42:52;;;;;;;3.40;3.10;;;;;;;;;;6113961;29;20599;-60
2024/03/22 03:45:56;;;;;;;3.17;2.97;;;;;;;;;;6112871;29;20315;-60
2024/03/22 03:48:58;;;;;;;3.00;2.80;;;;;;;;;;6112938;29;20299;-60
2024/03/22 03:52:00;;;;;;;3.42;3.33;;;;;;;;;;6112207;29;20505;-60
2024/03/22 03:55:04;;;;;;;2.50;2.50;;;;;;;;;;6113169;29;20600;-60
2024/03/22 03:58:07;;;;;;;3.10;3.00;;;;;;;;;;6112803;29;20287;-60
2024/03/22 04:01:09;;;;;;;2.87;2.67;;;;;;;;;;6121790;29;20290;-60
2024/03/22 04:04:12;;;;;;;2.73;2.70;;;;;;;;;;6140208;29;20293;-61
2024/03/22 04:07:14;;;;;;;3.03;2.73;;;;;;;;;;6153381;29;20294;-60
2024/03/22 04:10:18;;;;;;;2.70;2.60;;;;;;;;;;6136072;29;20295;-60
2024/03/22 04:13:20;;;;;;;3.20;3.00;;;;;;;;;;6158305;29;20290;-60
2024/03/22 04:16:22;;;;;;;2.93;2.83;;;;;;;;;;6159798;29;20297;-60
2024/03/22 04:19:24;;;;;;;3.27;3.10;;;;;;;;;;6157329;28;20566;-60
2024/03/22 04:22:27;;;;;;;2.93;2.70;;;;;;;;;;6136013;29;20286;-59
2024/03/22 04:25:30;;;;;;;2.80;2.70;;;;;;;;;;6135385;29;20294;-59
2024/03/22 04:28:33;;;;;;;3.37;3.27;;;;;;;;;;6136443;29;20290;-61
2024/03/22 04:31:36;;;;;;;2.80;2.60;;;;;;;;;;6136508;29;20301;-60
2024/03/22 04:34:43;;;;;;;2.97;2.80;;;;;;;;;;6143689;29;20302;-61
2024/03/22 04:37:45;;;;;;;3.20;3.00;;;;;;;;;;6155953;28;20298;-59
2024/03/22 04:40:50;;;;;;;3.00;2.80;;;;;;;;;;6159656;29;20306;-61
2024/03/22 04:43:53;;;;;;;2.73;2.63;;;;;;;;;;6143605;29;20293;-61
2024/03/22 04:46:55;;;;;;;3.53;3.33;;;;;;;;;;6142821;29;20478;-61
2024/03/22 04:49:58;;;;;;;3.00;2.80;;;;;;;;;;6144331;29;20235;-61
2024/03/22 04:53:01;;;;;;;3.17;2.97;;;;;;;;;;6144209;29;20301;-59
2024/03/22 04:56:05;;;;;;;3.37;3.13;;;;;;;;;;6143605;29;20556;-61
2024/03/22 04:59:08;;;;;;;2.80;2.70;;;;;;;;;;6143616;29;20295;-60
2024/03/22 05:02:10;;;;;;;4.40;4.05;;;;;;;;;;6142464;29;20447;-60
2024/03/22 05:05:13;;;;;;;3.78;3.60;;;;;;;;;;6141910;29;20458;-60
2024/03/22 05:08:15;;;;;;;3.67;3.47;;;;;;;;;;6142302;29;20455;-60
2024/03/22 05:11:19;;;;;;;3.22;3.10;;;;;;;;;;6150914;28;20303;-60
2024/03/22 05:14:21;;;;;;;3.20;2.90;;;;;;;;;;6167129;28;20289;-60
2024/03/22 05:17:24;;;;;;;4.22;3.90;;;;;;;;;;6166256;28;20468;-60
2024/03/22 05:20:26;;;;;;;3.67;3.47;;;;;;;;;;6166708;28;20298;-60
2024/03/22 05:23:29;;;;;;;4.20;3.90;;;;;;;;;;6166002;28;20641;-59
2024/03/22 05:26:36;;;;;;;3.10;3.00;;;;;;;;;;6182466;28;20297;-61
2024/03/22 05:29:39;;;;;;;4.85;3.65;;;;;;;;;;6166742;28;20298;-60
2024/03/22 05:32:42;;;;;;;4.20;3.10;;;;;;;;;;6167305;29;20294;-61
2024/03/22 05:35:44;;;;;;;4.00;3.80;;;;;;;;;;6165148;28;20533;-61
2024/03/22 05:38:46;;;;;;;4.03;3.78;;;;;;;;;;6165531;29;20493;-60
2024/03/22 05:41:50;;;;;;;3.87;3.60;;;;;;;;;;6151258;29;20314;-60
2024/03/22 05:44:55;;;;;;;4.20;3.13;;;;;;;;;;6138649;29;20295;-61
2024/03/22 05:47:56;;;;;;;4.38;3.92;;;;;;;;;;6138055;29;20438;-59
2024/03/22 05:50:59;;;;;;;3.17;3.07;;;;;;;;;;6138798;29;20295;-60
2024/03/22 05:54:01;;;;;;;3.77;3.07;;;;;;;;;;6138776;29;20299;-60
2024/03/22 05:57:06;;;;;;;3.63;3.40;;;;;;;;;;6139275;29;20302;-60
2024/03/22 06:00:08;;;;;;;3.50;3.23;;;;;;;;;;6139062;29;20299;-60
2024/03/22 06:03:11;;;;;;;2.83;2.70;;;;;;;;;;6139443;29;20296;-60
2024/03/22 06:06:12;;;;;;;3.37;3.13;;;;;;;;;;6138348;29;20298;-60
2024/03/22 06:09:23;;;;;;;3.77;3.13;;;;;;;;;;6138512;29;20290;-59
2024/03/22 06:12:27;;;;;;;4.40;3.50;;;;;;;;;;6155728;29;20282;-61
2024/03/22 06:15:29;;;;;;;3.80;3.50;;;;;;;;;;6162588;29;20298;-62
2024/03/22 06:18:32;;;;;;;3.43;3.13;;;;;;;;;;6163068;29;20306;-59
2024/03/22 06:21:34;;;;;;;3.47;3.27;;;;;;;;;;6162122;29;20285;-62
2024/03/22 06:24:37;;;;;;;3.50;3.30;;;;;;;;;;6161820;28;20302;-60
2024/03/22 06:27:40;;;;;;;5.83;3.30;;;;;;;;;;6137884;29;20564;-60
2024/03/22 06:30:43;;;;;;;3.33;3.03;;;;;;;;;;6114733;29;20299;-60
2024/03/22 06:33:46;;;;;;;2.80;2.60;;;;;;;;;;6115280;29;20483;-60
2024/03/22 06:36:49;;;;;;;3.27;3.03;;;;;;;;;;6113884;29;20319;-60
2024/03/22 06:39:51;;;;;;;3.10;3.00;;;;;;;;;;6114547;29;20312;-62
2024/03/22 06:42:55;;;;;;;7.53;3.00;;;;;;;;;;6162472;29;20289;-60
2024/03/22 06:45:58;;;;;;;3.67;3.57;;;;;;;;;;6161326;29;20302;-60
2024/03/22 06:49:00;;;;;;;6.20;3.30;;;;;;;;;;6161662;28;20290;-60
2024/03/22 06:52:03;;;;;;;3.13;3.03;;;;;;;;;;6161971;29;20595;-61
2024/03/22 06:55:07;;;;;;;5.23;3.50;;;;;;;;;;6160997;28;20298;-60
2024/03/22 06:58:11;;;;;;;3.60;3.40;;;;;;;;;;6161732;29;20298;-60
2024/03/22 07:01:15;;;;;;;4.67;3.77;;;;;;;;;;6161287;29;20297;-60
2024/03/22 07:04:17;;;;;;;3.67;3.43;;;;;;;;;;6160243;28;20383;-60
2024/03/22 07:07:20;;;;;;;3.50;3.30;;;;;;;;;;6161415;29;20285;-61
2024/03/22 07:10:22;;;;;;;3.13;2.97;;;;;;;;;;6160710;29;20481;-60
2024/03/22 07:13:27;;;;;;;4.00;3.30;;;;;;;;;;6137776;29;20283;-60
2024/03/22 07:16:28;;;;;;;3.53;3.23;;;;;;;;;;6137339;29;20294;-60
2024/03/22 07:19:32;;;;;;;3.43;3.23;;;;;;;;;;6136875;29;20291;-60
2024/03/22 07:22:34;;;;;;;3.30;3.03;;;;;;;;;;6137538;29;20307;-61
2024/03/22 07:25:37;;;;;;;3.77;3.57;;;;;;;;;;6136685;29;20298;-61
2024/03/22 07:28:40;;;;;;;3.63;3.33;;;;;;;;;;6136784;29;20296;-64
2024/03/22 07:31:43;;;;;;;2.93;2.73;;;;;;;;;;6136909;29;20303;-62
2024/03/22 07:34:47;;;;;;;4.23;3.10;;;;;;;;;;6136884;29;20566;-62
2024/03/22 07:37:50;;;;;;;6.13;2.97;;;;;;;;;;6137228;29;20295;-61
2024/03/22 07:40:52;;;;;;;3.63;3.37;;;;;;;;;;6145102;28;20589;-61
2024/03/22 07:43:57;;;;;;;3.90;3.07;;;;;;;;;;6161113;28;20293;-61
2024/03/22 07:46:59;;;;;;;3.03;2.93;;;;;;;;;;6161614;28;20294;-61
2024/03/22 07:50:02;;;;;;;3.30;3.00;;;;;;;;;;6160482;28;20488;-60
2024/03/22 07:53:05;;;;;;;2.93;2.83;;;;;;;;;;6160751;28;20498;-60
2024/03/22 07:56:06;;;;;;;3.43;3.30;;;;;;;;;;6160348;28;20286;-59
2024/03/22 07:59:11;;;;;;;3.70;3.33;;;;;;;;;;6160351;28;20301;-59
2024/03/22 08:02:12;;;;;;;3.50;3.30;;;;;;;;;;6144520;28;20291;-60
2024/03/22 08:05:15;;;;;;;3.58;3.47;;;;;;;;;;6144136;28;20290;-60
2024/03/22 08:08:17;;;;;;;3.33;3.10;;;;;;;;;;6159661;28;20297;-60
2024/03/22 08:11:20;;;;;;;3.70;3.60;;;;;;;;;;6150562;29;20487;-60
2024/03/22 08:14:24;;;;;;;6.72;3.70;;;;;;;;;;6136301;29;20298;-59
2024/03/22 08:17:26;;;;;;;3.03;2.93;;;;;;;;;;6136482;29;20294;-59
2024/03/22 08:20:29;;;;;;;2.80;2.70;;;;;;;;;;6135874;29;20282;-61
2024/03/22 08:23:32;;;;;;;3.93;3.30;;;;;;;;;;6136393;29;20295;-60
2024/03/22 08:26:34;;;;;;;5.27;3.20;;;;;;;;;;6135803;29;20306;-59
2024/03/22 08:29:41;;;;;;;3.37;3.17;;;;;;;;;;6135449;29;20298;-59
2024/03/22 08:32:43;;;;;;;3.07;2.90;;;;;;;;;;6136206;29;20294;-61
2024/03/22 08:35:46;;;;;;;2.90;2.80;;;;;;;;;;6135432;29;20322;-60
2024/03/22 08:38:49;;;;;;;3.40;3.10;;;;;;;;;;6134930;29;20303;-60
2024/03/22 08:41:52;;;;;;;2.97;2.97;;;;;;;;;;6151962;29;20586;-59
2024/03/22 08:44:55;;;;;;;3.08;2.97;;;;;;;;;;6159214;29;20298;-62
2024/03/22 08:47:58;;;;;;;3.13;3.03;;;;;;;;;;6159472;29;20302;-59
2024/03/22 08:51:01;;;;;;;3.10;2.90;;;;;;;;;;6143143;29;20298;-59
2024/03/22 08:54:03;;;;;;;3.85;3.67;;;;;;;;;;6157770;28;20481;-59
2024/03/22 08:57:06;;;;;;;4.75;3.60;;;;;;;;;;6158294;29;20476;-59
2024/03/22 09:00:11;;;;;;;3.33;2.90;;;;;;;;;;6159180;28;20290;-59
2024/03/22 09:03:15;;;;;;;2.80;2.70;;;;;;;;;;6159324;29;20294;-60
2024/03/22 09:06:17;;;;;;;2.85;2.80;;;;;;;;;;6159045;29;20290;-61
2024/03/22 09:09:19;;;;;;;3.00;2.90;;;;;;;;;;6159059;28;20290;-60
2024/03/22 09:12:23;;;;;;;2.80;2.70;;;;;;;;;;6142410;29;20295;-60
2024/03/22 09:15:28;;;;;;;2.40;2.40;;;;;;;;;;6135469;29;20353;-60
2024/03/22 09:18:29;;;;;;;2.40;2.40;;;;;;;;;;6138169;29;20299;-60
2024/03/22 09:21:32;;;;;;;4.38;2.60;;;;;;;;;;6139714;29;20386;-60
2024/03/22 09:24:34;;;;;;;3.20;3.10;;;;;;;;;;6138034;29;20479;-60
2024/03/22 09:27:37;;;;;;;2.83;2.78;;;;;;;;;;6140231;29;20295;-60
2024/03/22 09:30:41;;;;;;;3.13;3.00;;;;;;;;;;6139617;29;20291;-60
2024/03/22 09:33:44;;;;;;;2.70;2.70;;;;;;;;;;6139764;29;20291;-60
2024/03/22 09:36:47;;;;;;;2.45;2.30;;;;;;;;;;6138837;29;20299;-61
2024/03/22 09:39:48;;;;;;;4.35;2.67;;;;;;;;;;6139268;29;20455;-61
2024/03/22 09:42:53;;;;;;;2.40;2.40;;;;;;;;;;6163330;29;20294;-59
2024/03/22 09:45:59;;;;;;;2.90;2.80;;;;;;;;;;6178983;28;20531;-60
2024/03/22 09:49:01;;;;;;;2.58;2.50;;;;;;;;;;6163055;28;20327;-61
2024/03/22 09:52:05;;;;;;;3.50;3.20;;;;;;;;;;6163507;29;20290;-61
2024/03/22 09:55:08;;;;;;;3.45;3.33;;;;;;;;;;6162613;29;20470;-60
2024/03/22 09:58:11;;;;;;;3.83;3.63;;;;;;;;;;6163031;29;20611;-59
2024/03/22 10:01:18;;;;;;;4.00;3.65;;;;;;;;;;6162899;28;20290;-62
2024/03/22 10:04:20;;;;;;;3.80;3.60;;;;;;;;;;6162722;28;20295;-60
2024/03/22 10:07:23;;;;;;;4.07;3.87;;;;;;;;;;6163170;29;20294;-60
2024/03/22 10:10:26;;;;;;;4.30;4.05;;;;;;;;;;6162087;29;20294;-60
2024/03/22 10:13:29;;;;;;;4.68;4.38;;;;;;;;;;6139159;29;20298;-60
2024/03/22 10:16:35;;;;;;;4.80;4.40;;;;;;;;;;6137966;29;20303;-60
2024/03/22 10:19:37;;;;;;;4.78;4.38;;;;;;;;;;6138845;29;20323;-60
2024/03/22 10:22:43;;;;;;;4.65;4.35;;;;;;;;;;6139187;29;20291;-64
2024/03/22 10:25:45;;;;;;;4.70;4.40;;;;;;;;;;6138387;29;20607;-60
2024/03/22 10:28:48;;;;;;;5.07;4.68;;;;;;;;;;6138685;29;20294;-64
2024/03/22 10:31:53;;;;;;;5.15;4.75;;;;;;;;;;6138716;29;20292;-61
2024/03/22 10:34:55;;;;;;;5.93;4.82;;;;;;;;;;6138407;29;20291;-59
2024/03/22 10:37:58;;;;;;;4.75;4.35;;;;;;;;;;6138806;29;20299;-62
2024/03/22 10:41:00;;;;;;;5.13;4.68;;;;;;;;;;6147234;28;20303;-60
2024/03/22 10:44:04;;;;;;;6.20;4.65;;;;;;;;;;6161682;28;20551;-60
2024/03/22 10:47:10;;;;;;;5.13;4.72;;;;;;;;;;6162240;28;20295;-59
2024/03/22 10:50:14;;;;;;;5.80;4.72;;;;;;;;;;6161750;28;20302;-59
2024/03/22 10:53:20;;;;;;;6.28;5.10;;;;;;;;;;6162450;28;20281;-60
2024/03/22 10:56:23;;;;;;;5.97;4.80;;;;;;;;;;6161934;28;20286;-61
2024/03/22 10:59:25;;;;;;;5.32;4.70;;;;;;;;;;6161778;28;20293;-60
2024/03/22 11:02:30;;;;;;;5.20;4.90;;;;;;;;;;6161852;28;20299;-59
2024/03/22 11:05:33;;;;;;;5.38;4.90;;;;;;;;;;6161509;28;20298;-61
2024/03/22 11:08:38;;;;;;;5.70;4.90;;;;;;;;;;6161629;28;20606;-61
2024/03/22 11:11:42;;;;;;;5.35;4.95;;;;;;;;;;6142483;28;20300;-61
2024/03/22 11:14:44;;;;;;;8.10;5.25;;;;;;;;;;6113474;29;20291;-60
2024/03/22 11:17:49;;;;;;;7.78;5.25;;;;;;;;;;6113867;29;20605;-61
2024/03/22 11:20:52;;;;;;;6.53;5.72;;;;;;;;;;6113458;29;20296;-60
2024/03/22 11:23:54;;;;;;;5.78;5.18;;;;;;;;;;6113083;29;20466;-60
2024/03/22 11:26:57;;;;;;;4.68;4.32;;;;;;;;;;6113866;29;20307;-61
2024/03/22 11:30:00;;;;;;;5.63;5.10;;;;;;;;;;6113075;29;20291;-59
2024/03/22 11:33:04;;;;;;;6.10;5.40;;;;;;;;;;6114176;29;20295;-61
2024/03/22 11:36:07;;;;;;;5.78;5.22;;;;;;;;;;6113505;29;20612;-60
2024/03/22 11:39:09;;;;;;;5.45;4.95;;;;;;;;;;6113189;29;20303;-59
2024/03/22 11:42:12;;;;;;;5.25;4.93;;;;;;;;;;6149767;28;20291;-60
2024/03/22 11:45:15;;;;;;;5.70;5.20;;;;;;;;;;6160608;29;20385;-60
2024/03/22 11:48:20;;;;;;;9.27;5.53;;;;;;;;;;6161041;29;20295;-60
2024/03/22 11:51:22;;;;;;;5.78;4.95;;;;;;;;;;6160644;29;20299;-60
2024/03/22 11:54:25;;;;;;;6.07;5.25;;;;;;;;;;6160926;28;20290;-60
2024/03/22 11:57:28;;;;;;;7.10;6.47;;;;;;;;;;6159018;29;20494;-61
2024/03/22 12:00:32;;;;;;;5.88;5.38;;;;;;;;;;6160448;29;20291;-59
2024/03/22 12:03:35;;;;;;;4.68;4.38;;;;;;;;;;6160535;29;20282;-60
2024/03/22 12:06:38;;;;;;;7.93;5.20;;;;;;;;;;6159819;29;20298;-59
2024/03/22 12:09:41;;;;;;;5.10;4.75;;;;;;;;;;6159733;28;20298;-59
2024/03/22 12:12:43;;;;;;;5.63;4.97;;;;;;;;;;6141179;29;20451;-60
2024/03/22 12:15:45;;;;;;;5.85;4.57;;;;;;;;;;6136319;29;20348;-60
2024/03/22 12:18:50;;;;;;;5.20;4.70;;;;;;;;;;6136022;29;20314;-61
2024/03/22 12:21:51;;;;;;;4.75;4.45;;;;;;;;;;6136711;29;20294;-60
2024/03/22 12:24:54;;;;;;;5.45;4.97;;;;;;;;;;6136113;29;20603;-59
2024/03/22 12:27:56;;;;;;;4.63;4.22;;;;;;;;;;6136612;29;20294;-60
2024/03/22 12:30:59;;;;;;;5.05;4.55;;;;;;;;;;6135757;29;20476;-60
2024/03/22 12:34:02;;;;;;;4.85;4.40;;;;;;;;;;6135910;29;20291;-61
2024/03/22 12:37:05;;;;;;;6.80;6.10;;;;;;;;;;6134467;29;20479;-60
2024/03/22 12:40:09;;;;;;;6.25;5.65;;;;;;;;;;6136126;29;20479;-60
2024/03/22 12:43:11;;;;;;;6.15;5.65;;;;;;;;;;6158719;28;20512;-60
2024/03/22 12:46:14;;;;;;;4.95;4.65;;;;;;;;;;6159489;29;20606;-60
2024/03/22 12:49:17;;;;;;;5.40;4.95;;;;;;;;;;6159743;28;20310;-59
2024/03/22 12:52:20;;;;;;;4.88;4.57;;;;;;;;;;6160550;28;20286;-61
2024/03/22 12:55:22;;;;;;;4.60;4.30;;;;;;;;;;6164976;29;20294;-61
2024/03/22 12:58:24;;;;;;;5.20;4.75;;;;;;;;;;6164781;29;20290;-62
2024/03/22 13:01:26;;;;;;;5.53;4.88;;;;;;;;;;6163751;29;20293;-59
2024/03/22 13:04:31;;;;;;;6.05;5.07;;;;;;;;;;6163846;28;20326;-59
2024/03/22 13:07:32;;;;;;;5.13;4.75;;;;;;;;;;6164304;29;20292;-61
2024/03/22 13:10:35;;;;;;;5.05;4.57;;;;;;;;;;6161838;29;20294;-60
2024/03/22 13:13:37;;;;;;;5.57;5.07;;;;;;;;;;6140725;29;20497;-61
2024/03/22 13:16:40;;;;;;;7.68;5.07;;;;;;;;;;6140287;29;20302;-60
2024/03/22 13:19:43;;;;;;;7.72;5.05;;;;;;;;;;6140002;29;20303;-61
2024/03/22 13:22:46;;;;;;;5.72;5.20;;;;;;;;;;6140663;29;20294;-60
2024/03/22 13:25:47;;;;;;;5.88;5.32;;;;;;;;;;6139681;29;20295;-61
2024/03/22 13:28:50;;;;;;;5.80;4.78;;;;;;;;;;6139779;29;20380;-61
2024/03/22 13:31:52;;;;;;;5.20;4.72;;;;;;;;;;6140356;29;20320;-61
2024/03/22 13:34:56;;;;;;;5.18;4.70;;;;;;;;;;6139831;29;20298;-61
2024/03/22 13:37:58;;;;;;;4.43;4.13;;;;;;;;;;6140131;29;20299;-61
2024/03/22 13:41:03;;;;;;;7.63;4.20;;;;;;;;;;6148473;28;20285;-61
2024/03/22 13:44:07;;;;;;;4.70;4.38;;;;;;;;;;6163075;28;20294;-61
2024/03/22 13:47:10;;;;;;;4.53;4.28;;;;;;;;;;6163386;28;20352;-61
2024/03/22 13:50:14;;;;;;;4.70;4.22;;;;;;;;;;6163215;28;20535;-61
2024/03/22 13:53:16;;;;;;;4.45;4.25;;;;;;;;;;6163746;28;20554;-60
2024/03/22 13:56:18;;;;;;;5.47;4.10;;;;;;;;;;6162970;28;20372;-60
2024/03/22 13:59:21;;;;;;;3.92;3.72;;;;;;;;;;6162937;28;20297;-60
2024/03/22 14:02:23;;;;;;;4.38;4.07;;;;;;;;;;6163990;28;20282;-61
2024/03/22 14:05:27;;;;;;;4.47;4.07;;;;;;;;;;6162189;28;20282;-61
2024/03/22 14:08:29;;;;;;;4.63;4.28;;;;;;;;;;6163502;28;20294;-60
2024/03/22 14:11:32;;;;;;;3.17;3.03;;;;;;;;;;6153040;29;20291;-60
2024/03/22 14:14:34;;;;;;;3.08;2.97;;;;;;;;;;6139058;29;20291;-61
2024/03/22 14:17:36;;;;;;;3.20;3.00;;;;;;;;;;6140177;29;20508;-61
2024/03/22 14:20:40;;;;;;;4.15;3.00;;;;;;;;;;6138778;29;20302;-61
2024/03/22 14:23:42;;;;;;;2.75;2.65;;;;;;;;;;6139494;29;20291;-61
2024/03/22 14:26:45;;;;;;;7.60;2.88;;;;;;;;;;6138684;29;20286;-61
2024/03/22 14:29:47;;;;;;;2.58;2.30;;;;;;;;;;6137892;29;20258;-60
2024/03/22 14:32:52;;;;;;;3.25;2.40;;;;;;;;;;6138948;29;20318;-61
2024/03/22 14:35:55;;;;;;;2.25;2.05;;;;;;;;;;6138449;29;20303;-61
2024/03/22 14:38:58;;;;;;;2.00;1.80;;;;;;;;;;6138071;29;20291;-61
2024/03/22 14:42:00;;;;;;;3.45;2.38;;;;;;;;;;6140557;29;20360;-61
2024/03/22 14:45:03;;;;;;;4.18;2.20;;;;;;;;;;6161940;29;20297;-61
2024/03/22 14:48:07;;;;;;;2.53;2.25;;;;;;;;;;6162449;29;20346;-59
2024/03/22 14:51:11;;;;;;;4.75;2.47;;;;;;;;;;6161745;29;20688;-60
2024/03/22 14:54:13;;;;;;;5.35;2.08;;;;;;;;;;6161640;28;20290;-60
2024/03/22 14:57:16;;;;;;;4.70;2.53;;;;;;;;;;6161982;29;20380;-59
2024/03/22 15:00:19;;;;;;;6.10;2.35;;;;;;;;;;6160981;29;20290;-61
2024/03/22 15:03:22;;;;;;;5.15;2.17;;;;;;;;;;6161416;29;20290;-60
2024/03/22 15:06:25;;;;;;;2.40;2.20;;;;;;;;;;6145095;29;20290;-61
2024/03/22 15:09:28;;;;;;;2.85;1.80;;;;;;;;;;6161274;28;20286;-60
2024/03/22 15:12:31;;;;;;;6.07;2.00;;;;;;;;;;6144421;29;20283;-61
2024/03/22 15:15:33;;;;;;;2.45;1.90;;;;;;;;;;6136910;29;20291;-60
2024/03/22 15:18:36;;;;;;;4.28;1.70;;;;;;;;;;6138183;29;20296;-61
2024/03/22 15:21:39;;;;;;;4.70;1.88;;;;;;;;;;6137017;29;20303;-61
2024/03/22 15:24:42;;;;;;;4.28;1.70;;;;;;;;;;6136842;29;20553;-61
2024/03/22 15:27:43;;;;;;;5.93;2.03;;;;;;;;;;6137144;29;20294;-60
2024/03/22 15:30:46;;;;;;;2.30;2.10;;;;;;;;;;6136697;29;20310;-60
2024/03/22 15:33:48;;;;;;;6.63;2.20;;;;;;;;;;6136889;29;20292;-62
2024/03/22 15:36:52;;;;;;;2.33;2.22;;;;;;;;;;6121398;29;20290;-61
2024/03/22 15:39:54;;;;;;;5.97;2.67;;;;;;;;;;6135947;29;20671;-61
2024/03/22 15:42:57;;;;;;;2.92;2.13;;;;;;;;;;6161209;29;20290;-61
2024/03/22 15:45:59;;;;;;;5.57;2.70;;;;;;;;;;6160701;29;20290;-61
2024/03/22 15:49:01;;;;;;;5.13;2.35;;;;;;;;;;6161240;28;20293;-60
2024/03/22 15:52:05;;;;;;;6.60;2.88;;;;;;;;;;6161668;29;20307;-60
2024/03/22 15:55:09;;;;;;;7.82;2.50;;;;;;;;;;6145001;29;20299;-60
2024/03/22 15:58:11;;;;;;;6.22;3.03;;;;;;;;;;6161763;29;20298;-60
2024/03/22 16:01:13;;;;;;;5.72;2.60;;;;;;;;;;6160853;29;20298;-61
2024/03/22 16:04:17;;;;;;;5.50;2.53;;;;;;;;;;6160912;28;20379;-60
2024/03/22 16:07:20;;;;;;;5.30;2.33;;;;;;;;;;6161280;29;20282;-61
2024/03/22 16:10:23;;;;;;;8.52;2.80;;;;;;;;;;6160299;29;20302;-61
2024/03/22 16:13:26;;;;;;;4.25;2.40;;;;;;;;;;6137644;29;20294;-62
2024/03/22 16:16:29;;;;;;;10.25;2.85;;;;;;;;;;6120273;29;20295;-61
2024/03/22 16:19:32;;;;;;;7.95;2.70;;;;;;;;;;6136192;29;20508;-60
2024/03/22 16:22:38;;;;;;;13.18;2.58;;;;;;;;;;6136663;29;20290;-60
2024/03/22 16:25:40;;;;;;;5.47;2.78;;;;;;;;;;6135597;29;20302;-60
2024/03/22 16:28:42;;;;;;;9.13;3.05;;;;;;;;;;6136191;29;20296;-62
2024/03/22 16:31:44;;;;;;;10.50;3.10;;;;;;;;;;6136089;29;20425;-59
2024/03/22 16:34:47;;;;;;;9.27;2.85;;;;;;;;;;6135927;29;20307;-62
2024/03/22 16:37:51;;;;;;;6.63;3.35;;;;;;;;;;6136246;29;20298;-60
2024/03/22 16:40:54;;;;;;;8.05;2.80;;;;;;;;;;6143804;28;20302;-59
2024/03/22 16:43:56;;;;;;;7.85;2.22;;;;;;;;;;6159723;28;20322;-60
2024/03/22 16:46:58;;;;;;;4.30;2.40;;;;;;;;;;6160451;28;20606;-59
2024/03/22 16:50:01;;;;;;;6.60;3.00;;;;;;;;;;6159844;28;20322;-59
2024/03/22 16:53:04;;;;;;;8.50;2.53;;;;;;;;;;6160039;28;20290;-59
2024/03/22 16:56:07;;;;;;;10.68;3.33;;;;;;;;;;6159626;28;20301;-61
2024/03/22 16:59:10;;;;;;;14.93;2.75;;;;;;;;;;6159209;28;20298;-61
2024/03/22 17:02:13;;;;;;;12.35;2.58;;;;;;;;;;6160053;28;20279;-61
2024/03/22 17:05:16;;;;;;;11.43;2.85;;;;;;;;;;6159425;28;20289;-59
2024/03/22 17:08:19;;;;;;;8.35;2.50;;;;;;;;;;6160562;28;20294;-61
2024/03/22 17:11:22;;;;;;;10.05;3.30;;;;;;;;;;6151330;29;20476;-61
2024/03/22 17:14:24;;;;;;;8.68;2.72;;;;;;;;;;6135694;29;20295;-61
2024/03/22 17:17:27;;;;;;;8.63;3.40;;;;;;;;;;6136033;29;20303;-62
2024/03/22 17:20:30;;;;;;;15.43;3.30;;;;;;;;;;6135863;29;20428;-62
2024/03/22 17:23:34;;;;;;;6.72;3.50;;;;;;;;;;6136045;29;20294;-60
2024/03/22 17:26:36;;;;;;;11.85;3.92;;;;;;;;;;6135769;29;20294;-60
2024/03/22 17:29:39;;;;;;;6.38;3.53;;;;;;;;;;6135594;29;20294;-61
2024/03/22 17:32:41;;;;;;;11.60;3.60;;;;;;;;;;6136054;29;20291;-59
2024/03/22 17:35:44;;;;;;;10.90;3.50;;;;;;;;;;6135044;29;20298;-60
2024/03/22 17:38:47;;;;;;;12.30;3.13;;;;;;;;;;6136470;29;20603;-60
2024/03/22 17:41:50;;;;;;;6.70;2.78;;;;;;;;;;6155507;29;20294;-60
2024/03/22 17:44:52;;;;;;;8.88;3.10;;;;;;;;;;6163635;29;20302;-60
2024/03/22 17:47:55;;;;;;;6.30;2.88;;;;;;;;;;6163884;29;20322;-60
2024/03/22 17:50:56;;;;;;;6.18;2.65;;;;;;;;;;6163263;29;20298;-62
2024/03/22 17:54:01;;;;;;;5.00;3.03;;;;;;;;;;6163567;28;20361;-60
2024/03/22 17:57:03;;;;;;;6.18;3.03;;;;;;;;;;6163986;29;20286;-60
2024/03/22 18:00:08;;;;;;;9.20;2.80;;;;;;;;;;6163338;29;20290;-60
2024/03/22 18:03:10;;;;;;;3.47;3.00;;;;;;;;;;6163863;29;20293;-60
2024/03/22 18:06:13;;;;;;;11.82;3.45;;;;;;;;;;6163057;29;20293;-60
2024/03/22 18:09:17;;;;;;;7.82;3.17;;;;;;;;;;6162967;28;20294;-60
2024/03/22 18:12:19;;;;;;;5.53;3.38;;;;;;;;;;6147786;29;20295;-60
2024/03/22 18:15:23;;;;;;;9.80;3.17;;;;;;;;;;6139246;29;20290;-60